sensor_id;sensor_type;location;lat;lon;timestamp;P1;durP1;ratioP1;P2;durP2;ratioP2
7487;SDS011;3785;52.260;4.728;2023-05-01T00:01:03;2.42;;;1.55;;
7487;SDS011;3785;52.260;4.728;2023-05-01T00:04:27;2.45;;;1.65;;
7487;SDS011;3785;52.260;4.728;2023-05-01T00:07:47;2.30;;;1.55;;
7487;SDS011;3785;52.260;4.728;2023-05-01T00:11:08;5.53;;;2.10;;
7487;SDS011;3785;52.260;4.728;2023-05-01T00:14:31;3.55;;;1.65;;
7487;SDS011;3785;52.260;4.728;2023-05-01T00:17:52;3.13;;;1.80;;
7487;SDS011;3785;52.260;4.728;2023-05-01T00:21:13;3.13;;;1.73;;
7487;SDS011;3785;52.260;4.728;2023-05-01T00:24:33;2.95;;;1.80;;
7487;SDS011;3785;52.260;4.728;2023-05-01T00:27:54;3.17;;;1.80;;
7487;SDS011;3785;52.260;4.728;2023-05-01T00:31:14;2.88;;;1.67;;
7487;SDS011;3785;52.260;4.728;2023-05-01T00:34:35;2.47;;;1.73;;
7487;SDS011;3785;52.260;4.728;2023-05-01T00:37:55;2.80;;;1.52;;
7487;SDS011;3785;52.260;4.728;2023-05-01T00:41:17;3.00;;;1.60;;
7487;SDS011;3785;52.260;4.728;2023-05-01T00:44:37;2.42;;;1.55;;
7487;SDS011;3785;52.260;4.728;2023-05-01T00:47:58;2.53;;;1.40;;
7487;SDS011;3785;52.260;4.728;2023-05-01T00:51:19;3.25;;;1.95;;
7487;SDS011;3785;52.260;4.728;2023-05-01T00:54:41;3.80;;;1.70;;
7487;SDS011;3785;52.260;4.728;2023-05-01T00:58:01;2.85;;;1.92;;
7487;SDS011;3785;52.260;4.728;2023-05-01T01:01:22;3.25;;;1.73;;
7487;SDS011;3785;52.260;4.728;2023-05-01T01:04:44;2.22;;;1.63;;
7487;SDS011;3785;52.260;4.728;2023-05-01T01:08:27;3.47;;;1.63;;
7487;SDS011;3785;52.260;4.728;2023-05-01T01:22:22;2.50;;;1.70;;
7487;SDS011;3785;52.260;4.728;2023-05-01T01:29:20;2.35;;;1.45;;
7487;SDS011;3785;52.260;4.728;2023-05-01T01:32:55;2.80;;;1.58;;
7487;SDS011;3785;52.260;4.728;2023-05-01T01:36:38;3.70;;;1.73;;
7487;SDS011;3785;52.260;4.728;2023-05-01T01:40:07;2.80;;;1.70;;
7487;SDS011;3785;52.260;4.728;2023-05-01T01:43:37;4.43;;;1.55;;
7487;SDS011;3785;52.260;4.728;2023-05-01T01:47:00;3.58;;;1.73;;
7487;SDS011;3785;52.260;4.728;2023-05-01T01:50:24;2.20;;;1.60;;
7487;SDS011;3785;52.260;4.728;2023-05-01T01:53:49;2.78;;;1.90;;
7487;SDS011;3785;52.260;4.728;2023-05-01T01:57:11;3.53;;;1.73;;
7487;SDS011;3785;52.260;4.728;2023-05-01T02:00:34;3.63;;;1.50;;
7487;SDS011;3785;52.260;4.728;2023-05-01T02:03:55;1.83;;;1.27;;
7487;SDS011;3785;52.260;4.728;2023-05-01T02:07:16;2.22;;;1.45;;
7487;SDS011;3785;52.260;4.728;2023-05-01T02:10:39;2.40;;;1.63;;
7487;SDS011;3785;52.260;4.728;2023-05-01T02:14:00;2.70;;;1.80;;
7487;SDS011;3785;52.260;4.728;2023-05-01T02:17:22;2.22;;;1.50;;
7487;SDS011;3785;52.260;4.728;2023-05-01T02:20:43;3.85;;;1.55;;
7487;SDS011;3785;52.260;4.728;2023-05-01T02:24:04;2.67;;;1.77;;
7487;SDS011;3785;52.260;4.728;2023-05-01T02:27:28;3.13;;;1.83;;
7487;SDS011;3785;52.260;4.728;2023-05-01T02:30:50;4.20;;;1.52;;
7487;SDS011;3785;52.260;4.728;2023-05-01T02:34:11;2.78;;;1.80;;
7487;SDS011;3785;52.260;4.728;2023-05-01T02:37:32;2.08;;;1.35;;
7487;SDS011;3785;52.260;4.728;2023-05-01T02:40:53;3.17;;;1.83;;
7487;SDS011;3785;52.260;4.728;2023-05-01T02:44:16;3.88;;;1.60;;
7487;SDS011;3785;52.260;4.728;2023-05-01T02:47:37;3.40;;;1.73;;
7487;SDS011;3785;52.260;4.728;2023-05-01T02:50:58;3.20;;;2.03;;
7487;SDS011;3785;52.260;4.728;2023-05-01T02:54:20;2.83;;;1.50;;
7487;SDS011;3785;52.260;4.728;2023-05-01T02:57:41;2.60;;;1.90;;
7487;SDS011;3785;52.260;4.728;2023-05-01T03:01:02;3.22;;;1.60;;
7487;SDS011;3785;52.260;4.728;2023-05-01T03:04:22;2.05;;;1.42;;
7487;SDS011;3785;52.260;4.728;2023-05-01T03:07:43;2.88;;;1.75;;
7487;SDS011;3785;52.260;4.728;2023-05-01T03:11:06;3.15;;;1.50;;
7487;SDS011;3785;52.260;4.728;2023-05-01T03:14:27;2.95;;;1.80;;
7487;SDS011;3785;52.260;4.728;2023-05-01T03:17:48;2.70;;;1.67;;
7487;SDS011;3785;52.260;4.728;2023-05-01T03:21:08;4.28;;;1.80;;
7487;SDS011;3785;52.260;4.728;2023-05-01T03:24:31;2.35;;;1.73;;
7487;SDS011;3785;52.260;4.728;2023-05-01T03:27:52;2.35;;;1.73;;
7487;SDS011;3785;52.260;4.728;2023-05-01T03:31:13;2.60;;;1.60;;
7487;SDS011;3785;52.260;4.728;2023-05-01T03:34:34;2.08;;;1.38;;
7487;SDS011;3785;52.260;4.728;2023-05-01T03:37:54;4.72;;;2.15;;
7487;SDS011;3785;52.260;4.728;2023-05-01T03:41:15;4.40;;;2.00;;
7487;SDS011;3785;52.260;4.728;2023-05-01T03:44:36;4.00;;;2.00;;
7487;SDS011;3785;52.260;4.728;2023-05-01T03:47:57;4.90;;;2.00;;
7487;SDS011;3785;52.260;4.728;2023-05-01T03:51:17;3.92;;;2.03;;
7487;SDS011;3785;52.260;4.728;2023-05-01T03:54:38;3.65;;;1.83;;
7487;SDS011;3785;52.260;4.728;2023-05-01T03:57:58;4.75;;;1.88;;
7487;SDS011;3785;52.260;4.728;2023-05-01T04:01:19;3.15;;;1.98;;
7487;SDS011;3785;52.260;4.728;2023-05-01T04:04:40;4.53;;;1.65;;
7487;SDS011;3785;52.260;4.728;2023-05-01T04:08:00;3.03;;;2.22;;
7487;SDS011;3785;52.260;4.728;2023-05-01T04:11:21;3.85;;;2.00;;
7487;SDS011;3785;52.260;4.728;2023-05-01T04:14:41;3.97;;;2.30;;
7487;SDS011;3785;52.260;4.728;2023-05-01T04:18:03;4.22;;;2.25;;
7487;SDS011;3785;52.260;4.728;2023-05-01T04:21:24;3.25;;;2.13;;
7487;SDS011;3785;52.260;4.728;2023-05-01T04:24:45;3.38;;;2.38;;
7487;SDS011;3785;52.260;4.728;2023-05-01T04:28:05;3.88;;;1.75;;
7487;SDS011;3785;52.260;4.728;2023-05-01T04:31:26;3.20;;;2.25;;
7487;SDS011;3785;52.260;4.728;2023-05-01T04:34:47;4.65;;;2.17;;
7487;SDS011;3785;52.260;4.728;2023-05-01T04:38:08;3.03;;;1.98;;
7487;SDS011;3785;52.260;4.728;2023-05-01T04:41:31;5.10;;;1.80;;
7487;SDS011;3785;52.260;4.728;2023-05-01T04:44:51;3.25;;;2.00;;
7487;SDS011;3785;52.260;4.728;2023-05-01T04:48:12;2.75;;;1.60;;
7487;SDS011;3785;52.260;4.728;2023-05-01T04:51:33;2.78;;;2.00;;
7487;SDS011;3785;52.260;4.728;2023-05-01T04:54:53;4.40;;;2.10;;
7487;SDS011;3785;52.260;4.728;2023-05-01T04:58:14;4.15;;;2.28;;
7487;SDS011;3785;52.260;4.728;2023-05-01T05:01:34;4.50;;;2.00;;
7487;SDS011;3785;52.260;4.728;2023-05-01T05:04:55;2.58;;;1.83;;
7487;SDS011;3785;52.260;4.728;2023-05-01T05:08:16;3.28;;;1.90;;
7487;SDS011;3785;52.260;4.728;2023-05-01T05:11:37;3.03;;;1.67;;
7487;SDS011;3785;52.260;4.728;2023-05-01T05:14:57;4.65;;;2.20;;
7487;SDS011;3785;52.260;4.728;2023-05-01T05:18:18;3.22;;;1.73;;
7487;SDS011;3785;52.260;4.728;2023-05-01T05:21:39;3.75;;;1.90;;
7487;SDS011;3785;52.260;4.728;2023-05-01T05:25:00;2.53;;;1.73;;
7487;SDS011;3785;52.260;4.728;2023-05-01T05:28:23;4.03;;;2.30;;
7487;SDS011;3785;52.260;4.728;2023-05-01T05:31:43;3.92;;;1.67;;
7487;SDS011;3785;52.260;4.728;2023-05-01T05:35:04;2.95;;;1.73;;
7487;SDS011;3785;52.260;4.728;2023-05-01T05:38:25;3.20;;;1.40;;
7487;SDS011;3785;52.260;4.728;2023-05-01T05:41:46;2.47;;;1.48;;
7487;SDS011;3785;52.260;4.728;2023-05-01T05:45:08;2.53;;;1.60;;
7487;SDS011;3785;52.260;4.728;2023-05-01T05:48:29;4.28;;;2.25;;
7487;SDS011;3785;52.260;4.728;2023-05-01T05:51:49;3.03;;;1.85;;
7487;SDS011;3785;52.260;4.728;2023-05-01T05:55:10;3.65;;;1.52;;
7487;SDS011;3785;52.260;4.728;2023-05-01T05:58:31;4.47;;;1.77;;
7487;SDS011;3785;52.260;4.728;2023-05-01T06:01:51;3.72;;;1.85;;
7487;SDS011;3785;52.260;4.728;2023-05-01T06:05:12;6.03;;;1.70;;
7487;SDS011;3785;52.260;4.728;2023-05-01T06:08:32;2.65;;;1.55;;
7487;SDS011;3785;52.260;4.728;2023-05-01T06:11:55;4.32;;;2.03;;
7487;SDS011;3785;52.260;4.728;2023-05-01T06:15:17;3.65;;;2.10;;
7487;SDS011;3785;52.260;4.728;2023-05-01T06:18:37;5.63;;;2.22;;
7487;SDS011;3785;52.260;4.728;2023-05-01T06:21:58;4.43;;;1.60;;
7487;SDS011;3785;52.260;4.728;2023-05-01T06:25:19;3.50;;;1.88;;
7487;SDS011;3785;52.260;4.728;2023-05-01T06:28:39;4.93;;;1.90;;
7487;SDS011;3785;52.260;4.728;2023-05-01T06:32:00;5.25;;;1.80;;
7487;SDS011;3785;52.260;4.728;2023-05-01T06:35:21;4.20;;;1.42;;
7487;SDS011;3785;52.260;4.728;2023-05-01T06:38:42;3.22;;;1.88;;
7487;SDS011;3785;52.260;4.728;2023-05-01T06:42:08;3.42;;;1.48;;
7487;SDS011;3785;52.260;4.728;2023-05-01T06:45:30;3.05;;;1.65;;
7487;SDS011;3785;52.260;4.728;2023-05-01T06:48:51;6.07;;;1.70;;
7487;SDS011;3785;52.260;4.728;2023-05-01T06:52:12;2.75;;;1.80;;
7487;SDS011;3785;52.260;4.728;2023-05-01T06:55:32;3.28;;;1.60;;
7487;SDS011;3785;52.260;4.728;2023-05-01T06:58:53;2.75;;;1.83;;
7487;SDS011;3785;52.260;4.728;2023-05-01T07:02:13;2.75;;;1.70;;
7487;SDS011;3785;52.260;4.728;2023-05-01T07:05:34;3.83;;;2.05;;
7487;SDS011;3785;52.260;4.728;2023-05-01T07:08:54;2.50;;;1.70;;
7487;SDS011;3785;52.260;4.728;2023-05-01T07:12:15;2.90;;;2.03;;
7487;SDS011;3785;52.260;4.728;2023-05-01T07:15:36;3.75;;;2.13;;
7487;SDS011;3785;52.260;4.728;2023-05-01T07:18:56;3.38;;;2.00;;
7487;SDS011;3785;52.260;4.728;2023-05-01T07:22:17;5.03;;;2.10;;
7487;SDS011;3785;52.260;4.728;2023-05-01T07:25:38;5.60;;;2.10;;
7487;SDS011;3785;52.260;4.728;2023-05-01T07:29:03;6.57;;;2.33;;
7487;SDS011;3785;52.260;4.728;2023-05-01T07:32:24;3.78;;;2.15;;
7487;SDS011;3785;52.260;4.728;2023-05-01T07:35:45;3.97;;;2.00;;
7487;SDS011;3785;52.260;4.728;2023-05-01T07:39:05;3.00;;;1.90;;
7487;SDS011;3785;52.260;4.728;2023-05-01T07:42:26;3.85;;;2.47;;
7487;SDS011;3785;52.260;4.728;2023-05-01T07:45:53;4.55;;;2.63;;
7487;SDS011;3785;52.260;4.728;2023-05-01T07:49:19;3.25;;;1.65;;
7487;SDS011;3785;52.260;4.728;2023-05-01T07:52:39;5.32;;;2.30;;
7487;SDS011;3785;52.260;4.728;2023-05-01T07:56:09;3.78;;;2.13;;
7487;SDS011;3785;52.260;4.728;2023-05-01T07:59:30;3.85;;;2.28;;
7487;SDS011;3785;52.260;4.728;2023-05-01T08:02:50;3.70;;;1.98;;
7487;SDS011;3785;52.260;4.728;2023-05-01T08:06:11;4.20;;;2.10;;
7487;SDS011;3785;52.260;4.728;2023-05-01T08:09:31;4.65;;;2.35;;
7487;SDS011;3785;52.260;4.728;2023-05-01T08:12:52;5.25;;;2.47;;
7487;SDS011;3785;52.260;4.728;2023-05-01T08:16:12;4.80;;;2.53;;
7487;SDS011;3785;52.260;4.728;2023-05-01T08:19:33;2.75;;;1.95;;
7487;SDS011;3785;52.260;4.728;2023-05-01T08:22:54;3.75;;;2.13;;
7487;SDS011;3785;52.260;4.728;2023-05-01T08:26:14;6.05;;;2.50;;
7487;SDS011;3785;52.260;4.728;2023-05-01T08:29:35;4.05;;;2.10;;
7487;SDS011;3785;52.260;4.728;2023-05-01T08:32:56;4.93;;;2.28;;
7487;SDS011;3785;52.260;4.728;2023-05-01T08:36:16;4.15;;;2.38;;
7487;SDS011;3785;52.260;4.728;2023-05-01T08:39:37;6.65;;;3.45;;
7487;SDS011;3785;52.260;4.728;2023-05-01T08:43:00;7.57;;;4.10;;
7487;SDS011;3785;52.260;4.728;2023-05-01T08:46:26;6.88;;;3.10;;
7487;SDS011;3785;52.260;4.728;2023-05-01T08:49:53;6.43;;;2.67;;
7487;SDS011;3785;52.260;4.728;2023-05-01T08:53:15;5.07;;;2.30;;
7487;SDS011;3785;52.260;4.728;2023-05-01T08:56:36;5.60;;;2.67;;
7487;SDS011;3785;52.260;4.728;2023-05-01T08:59:58;4.00;;;2.40;;
7487;SDS011;3785;52.260;4.728;2023-05-01T09:03:19;6.28;;;2.47;;
7487;SDS011;3785;52.260;4.728;2023-05-01T09:06:41;4.65;;;2.40;;
7487;SDS011;3785;52.260;4.728;2023-05-01T09:10:03;4.40;;;2.58;;
7487;SDS011;3785;52.260;4.728;2023-05-01T09:13:24;4.80;;;2.28;;
7487;SDS011;3785;52.260;4.728;2023-05-01T09:16:45;8.63;;;3.08;;
7487;SDS011;3785;52.260;4.728;2023-05-01T09:20:06;6.00;;;2.75;;
7487;SDS011;3785;52.260;4.728;2023-05-01T09:23:27;3.85;;;2.38;;
7487;SDS011;3785;52.260;4.728;2023-05-01T09:26:47;3.83;;;2.20;;
7487;SDS011;3785;52.260;4.728;2023-05-01T09:30:08;3.83;;;2.28;;
7487;SDS011;3785;52.260;4.728;2023-05-01T09:33:29;3.42;;;2.25;;
7487;SDS011;3785;52.260;4.728;2023-05-01T09:36:50;5.38;;;2.40;;
7487;SDS011;3785;52.260;4.728;2023-05-01T09:40:13;6.03;;;2.30;;
7487;SDS011;3785;52.260;4.728;2023-05-01T09:43:34;4.82;;;1.98;;
7487;SDS011;3785;52.260;4.728;2023-05-01T09:46:55;4.38;;;1.90;;
7487;SDS011;3785;52.260;4.728;2023-05-01T09:50:29;5.20;;;2.13;;
7487;SDS011;3785;52.260;4.728;2023-05-01T09:53:51;7.22;;;2.15;;
7487;SDS011;3785;52.260;4.728;2023-05-01T09:57:12;3.70;;;2.03;;
7487;SDS011;3785;52.260;4.728;2023-05-01T10:00:35;3.65;;;2.13;;
7487;SDS011;3785;52.260;4.728;2023-05-01T10:04:07;3.80;;;2.50;;
7487;SDS011;3785;52.260;4.728;2023-05-01T10:07:28;5.28;;;1.90;;
7487;SDS011;3785;52.260;4.728;2023-05-01T10:10:59;6.00;;;2.30;;
7487;SDS011;3785;52.260;4.728;2023-05-01T10:14:24;4.45;;;1.80;;
7487;SDS011;3785;52.260;4.728;2023-05-01T10:17:46;4.35;;;2.22;;
7487;SDS011;3785;52.260;4.728;2023-05-01T10:21:08;5.60;;;2.10;;
7487;SDS011;3785;52.260;4.728;2023-05-01T10:24:29;2.70;;;1.67;;
7487;SDS011;3785;52.260;4.728;2023-05-01T10:27:50;3.53;;;1.73;;
7487;SDS011;3785;52.260;4.728;2023-05-01T10:31:11;3.78;;;2.10;;
7487;SDS011;3785;52.260;4.728;2023-05-01T10:34:41;2.90;;;1.92;;
7487;SDS011;3785;52.260;4.728;2023-05-01T10:38:05;4.03;;;2.25;;
7487;SDS011;3785;52.260;4.728;2023-05-01T10:45:28;8.05;;;2.88;;
7487;SDS011;3785;52.260;4.728;2023-05-01T10:52:10;4.07;;;2.58;;
7487;SDS011;3785;52.260;4.728;2023-05-01T10:55:40;5.03;;;2.80;;
7487;SDS011;3785;52.260;4.728;2023-05-01T10:59:04;6.25;;;2.70;;
7487;SDS011;3785;52.260;4.728;2023-05-01T11:02:25;3.90;;;2.38;;
7487;SDS011;3785;52.260;4.728;2023-05-01T11:13:22;4.30;;;2.80;;
7487;SDS011;3785;52.260;4.728;2023-05-01T11:17:43;4.05;;;2.38;;
7487;SDS011;3785;52.260;4.728;2023-05-01T11:21:02;5.25;;;3.50;;
7487;SDS011;3785;52.260;4.728;2023-05-01T11:24:29;5.88;;;3.30;;
7487;SDS011;3785;52.260;4.728;2023-05-01T11:27:51;5.63;;;2.97;;
7487;SDS011;3785;52.260;4.728;2023-05-01T11:31:19;7.50;;;3.50;;
7487;SDS011;3785;52.260;4.728;2023-05-01T11:34:40;5.35;;;3.75;;
7487;SDS011;3785;52.260;4.728;2023-05-01T11:38:01;6.15;;;3.30;;
7487;SDS011;3785;52.260;4.728;2023-05-01T11:41:22;5.97;;;3.30;;
7487;SDS011;3785;52.260;4.728;2023-05-01T11:44:43;5.82;;;3.80;;
7487;SDS011;3785;52.260;4.728;2023-05-01T11:48:24;6.60;;;4.03;;
7487;SDS011;3785;52.260;4.728;2023-05-01T11:51:50;8.70;;;4.40;;
7487;SDS011;3785;52.260;4.728;2023-05-01T11:55:15;6.03;;;3.65;;
7487;SDS011;3785;52.260;4.728;2023-05-01T11:58:36;7.05;;;4.47;;
7487;SDS011;3785;52.260;4.728;2023-05-01T12:01:57;6.05;;;3.75;;
7487;SDS011;3785;52.260;4.728;2023-05-01T12:05:17;6.72;;;4.72;;
7487;SDS011;3785;52.260;4.728;2023-05-01T12:08:46;5.60;;;4.28;;
7487;SDS011;3785;52.260;4.728;2023-05-01T12:12:09;7.80;;;5.18;;
7487;SDS011;3785;52.260;4.728;2023-05-01T12:15:35;7.40;;;5.50;;
7487;SDS011;3785;52.260;4.728;2023-05-01T12:18:56;7.40;;;4.88;;
7487;SDS011;3785;52.260;4.728;2023-05-01T12:22:17;6.55;;;3.88;;
7487;SDS011;3785;52.260;4.728;2023-05-01T12:25:38;7.57;;;4.20;;
7487;SDS011;3785;52.260;4.728;2023-05-01T12:29:00;8.38;;;4.90;;
7487;SDS011;3785;52.260;4.728;2023-05-01T12:32:27;8.98;;;4.47;;
7487;SDS011;3785;52.260;4.728;2023-05-01T12:35:50;7.70;;;4.78;;
7487;SDS011;3785;52.260;4.728;2023-05-01T12:39:10;6.72;;;3.75;;
7487;SDS011;3785;52.260;4.728;2023-05-01T12:42:31;6.82;;;4.25;;
7487;SDS011;3785;52.260;4.728;2023-05-01T12:45:52;6.05;;;4.10;;
7487;SDS011;3785;52.260;4.728;2023-05-01T12:49:16;6.60;;;4.00;;
7487;SDS011;3785;52.260;4.728;2023-05-01T12:52:37;5.05;;;3.45;;
7487;SDS011;3785;52.260;4.728;2023-05-01T12:55:58;4.97;;;3.25;;
7487;SDS011;3785;52.260;4.728;2023-05-01T12:59:25;5.95;;;3.95;;
7487;SDS011;3785;52.260;4.728;2023-05-01T13:02:46;6.68;;;3.85;;
7487;SDS011;3785;52.260;4.728;2023-05-01T13:06:07;6.72;;;3.95;;
7487;SDS011;3785;52.260;4.728;2023-05-01T13:09:28;7.13;;;4.13;;
7487;SDS011;3785;52.260;4.728;2023-05-01T13:12:51;4.45;;;3.67;;
7487;SDS011;3785;52.260;4.728;2023-05-01T13:16:13;6.07;;;3.40;;
7487;SDS011;3785;52.260;4.728;2023-05-01T13:19:35;6.45;;;3.88;;
7487;SDS011;3785;52.260;4.728;2023-05-01T13:22:56;5.80;;;3.42;;
7487;SDS011;3785;52.260;4.728;2023-05-01T13:26:16;4.03;;;2.92;;
7487;SDS011;3785;52.260;4.728;2023-05-01T13:29:37;6.72;;;3.53;;
7487;SDS011;3785;52.260;4.728;2023-05-01T13:32:58;4.03;;;2.83;;
7487;SDS011;3785;52.260;4.728;2023-05-01T13:36:19;6.28;;;3.45;;
7487;SDS011;3785;52.260;4.728;2023-05-01T13:39:40;3.55;;;2.88;;
7487;SDS011;3785;52.260;4.728;2023-05-01T13:43:07;4.25;;;2.70;;
7487;SDS011;3785;52.260;4.728;2023-05-01T13:46:32;3.55;;;2.75;;
7487;SDS011;3785;52.260;4.728;2023-05-01T13:49:59;5.18;;;2.97;;
7487;SDS011;3785;52.260;4.728;2023-05-01T13:53:19;4.85;;;2.60;;
7487;SDS011;3785;52.260;4.728;2023-05-01T13:56:40;4.40;;;3.17;;
7487;SDS011;3785;52.260;4.728;2023-05-01T14:00:01;3.22;;;2.72;;
7487;SDS011;3785;52.260;4.728;2023-05-01T14:03:22;4.53;;;2.88;;
7487;SDS011;3785;52.260;4.728;2023-05-01T14:06:43;4.60;;;2.92;;
7487;SDS011;3785;52.260;4.728;2023-05-01T14:10:07;3.90;;;2.92;;
7487;SDS011;3785;52.260;4.728;2023-05-01T14:13:28;4.82;;;2.40;;
7487;SDS011;3785;52.260;4.728;2023-05-01T14:16:49;3.58;;;2.70;;
7487;SDS011;3785;52.260;4.728;2023-05-01T14:20:11;3.13;;;2.50;;
7487;SDS011;3785;52.260;4.728;2023-05-01T14:23:32;4.68;;;2.95;;
7487;SDS011;3785;52.260;4.728;2023-05-01T14:26:52;4.53;;;2.75;;
7487;SDS011;3785;52.260;4.728;2023-05-01T14:30:15;5.07;;;3.55;;
7487;SDS011;3785;52.260;4.728;2023-05-01T14:33:43;5.32;;;3.70;;
7487;SDS011;3785;52.260;4.728;2023-05-01T14:37:04;5.65;;;3.65;;
7487;SDS011;3785;52.260;4.728;2023-05-01T14:40:25;4.70;;;3.78;;
7487;SDS011;3785;52.260;4.728;2023-05-01T14:43:46;4.65;;;3.42;;
7487;SDS011;3785;52.260;4.728;2023-05-01T14:47:10;7.00;;;4.65;;
7487;SDS011;3785;52.260;4.728;2023-05-01T14:50:33;6.10;;;3.85;;
7487;SDS011;3785;52.260;4.728;2023-05-01T14:53:54;6.25;;;3.90;;
7487;SDS011;3785;52.260;4.728;2023-05-01T14:57:14;5.53;;;3.55;;
7487;SDS011;3785;52.260;4.728;2023-05-01T15:00:35;4.82;;;3.72;;
7487;SDS011;3785;52.260;4.728;2023-05-01T15:03:56;4.90;;;3.80;;
7487;SDS011;3785;52.260;4.728;2023-05-01T15:07:16;6.35;;;3.65;;
7487;SDS011;3785;52.260;4.728;2023-05-01T15:10:37;5.18;;;3.58;;
7487;SDS011;3785;52.260;4.728;2023-05-01T15:13:58;5.55;;;3.80;;
7487;SDS011;3785;52.260;4.728;2023-05-01T15:17:18;5.70;;;3.72;;
7487;SDS011;3785;52.260;4.728;2023-05-01T15:20:39;4.63;;;3.63;;
7487;SDS011;3785;52.260;4.728;2023-05-01T15:23:59;5.65;;;3.90;;
7487;SDS011;3785;52.260;4.728;2023-05-01T15:27:20;5.68;;;4.35;;
7487;SDS011;3785;52.260;4.728;2023-05-01T15:30:44;6.82;;;4.43;;
7487;SDS011;3785;52.260;4.728;2023-05-01T15:34:05;6.57;;;4.10;;
7487;SDS011;3785;52.260;4.728;2023-05-01T15:37:26;6.25;;;4.22;;
7487;SDS011;3785;52.260;4.728;2023-05-01T15:40:47;6.53;;;4.28;;
7487;SDS011;3785;52.260;4.728;2023-05-01T15:44:08;6.43;;;4.10;;
7487;SDS011;3785;52.260;4.728;2023-05-01T15:47:29;6.68;;;3.85;;
7487;SDS011;3785;52.260;4.728;2023-05-01T15:50:50;6.25;;;4.13;;
7487;SDS011;3785;52.260;4.728;2023-05-01T15:54:11;6.72;;;4.47;;
7487;SDS011;3785;52.260;4.728;2023-05-01T15:57:32;6.57;;;5.15;;
7487;SDS011;3785;52.260;4.728;2023-05-01T16:00:53;7.15;;;4.93;;
7487;SDS011;3785;52.260;4.728;2023-05-01T16:04:13;6.38;;;4.93;;
7487;SDS011;3785;52.260;4.728;2023-05-01T16:07:34;6.72;;;5.18;;
7487;SDS011;3785;52.260;4.728;2023-05-01T16:10:55;8.02;;;5.32;;
7487;SDS011;3785;52.260;4.728;2023-05-01T16:14:17;7.65;;;5.60;;
7487;SDS011;3785;52.260;4.728;2023-05-01T16:17:40;9.27;;;6.25;;
7487;SDS011;3785;52.260;4.728;2023-05-01T16:21:02;8.70;;;6.35;;
7487;SDS011;3785;52.260;4.728;2023-05-01T16:24:23;8.75;;;6.10;;
7487;SDS011;3785;52.260;4.728;2023-05-01T16:27:43;10.35;;;7.03;;
7487;SDS011;3785;52.260;4.728;2023-05-01T16:31:06;8.95;;;7.13;;
7487;SDS011;3785;52.260;4.728;2023-05-01T16:34:27;9.68;;;7.18;;
7487;SDS011;3785;52.260;4.728;2023-05-01T16:37:48;10.15;;;7.00;;
7487;SDS011;3785;52.260;4.728;2023-05-01T16:41:08;9.98;;;7.35;;
7487;SDS011;3785;52.260;4.728;2023-05-01T16:44:33;10.57;;;7.05;;
7487;SDS011;3785;52.260;4.728;2023-05-01T16:47:55;11.02;;;7.13;;
7487;SDS011;3785;52.260;4.728;2023-05-01T16:51:16;10.88;;;7.68;;
7487;SDS011;3785;52.260;4.728;2023-05-01T16:54:38;11.55;;;7.70;;
7487;SDS011;3785;52.260;4.728;2023-05-01T16:57:59;10.85;;;7.25;;
7487;SDS011;3785;52.260;4.728;2023-05-01T17:01:20;9.73;;;7.22;;
7487;SDS011;3785;52.260;4.728;2023-05-01T17:04:41;11.13;;;7.50;;
7487;SDS011;3785;52.260;4.728;2023-05-01T17:08:01;13.15;;;8.65;;
7487;SDS011;3785;52.260;4.728;2023-05-01T17:11:22;13.85;;;8.95;;
7487;SDS011;3785;52.260;4.728;2023-05-01T17:14:43;16.20;;;9.68;;
7487;SDS011;3785;52.260;4.728;2023-05-01T17:18:04;14.18;;;9.60;;
7487;SDS011;3785;52.260;4.728;2023-05-01T17:21:25;16.75;;;9.27;;
7487;SDS011;3785;52.260;4.728;2023-05-01T17:24:46;14.80;;;10.57;;
7487;SDS011;3785;52.260;4.728;2023-05-01T17:28:07;15.23;;;10.20;;
7487;SDS011;3785;52.260;4.728;2023-05-01T17:31:27;19.35;;;11.10;;
7487;SDS011;3785;52.260;4.728;2023-05-01T17:34:48;17.77;;;11.00;;
7487;SDS011;3785;52.260;4.728;2023-05-01T17:38:08;18.95;;;11.40;;
7487;SDS011;3785;52.260;4.728;2023-05-01T17:41:29;18.27;;;12.30;;
7487;SDS011;3785;52.260;4.728;2023-05-01T17:44:49;19.88;;;11.98;;
7487;SDS011;3785;52.260;4.728;2023-05-01T17:48:10;17.48;;;11.55;;
7487;SDS011;3785;52.260;4.728;2023-05-01T17:51:30;17.20;;;9.43;;
7487;SDS011;3785;52.260;4.728;2023-05-01T17:54:52;22.00;;;10.90;;
7487;SDS011;3785;52.260;4.728;2023-05-01T17:58:12;17.38;;;10.57;;
7487;SDS011;3785;52.260;4.728;2023-05-01T18:01:33;15.48;;;9.85;;
7487;SDS011;3785;52.260;4.728;2023-05-01T18:04:54;16.35;;;9.98;;
7487;SDS011;3785;52.260;4.728;2023-05-01T18:08:14;16.80;;;9.90;;
7487;SDS011;3785;52.260;4.728;2023-05-01T18:11:35;15.90;;;9.40;;
7487;SDS011;3785;52.260;4.728;2023-05-01T18:14:56;17.25;;;9.52;;
7487;SDS011;3785;52.260;4.728;2023-05-01T18:18:16;17.08;;;10.07;;
7487;SDS011;3785;52.260;4.728;2023-05-01T18:21:37;15.70;;;9.60;;
7487;SDS011;3785;52.260;4.728;2023-05-01T18:24:57;14.05;;;8.60;;
7487;SDS011;3785;52.260;4.728;2023-05-01T18:28:18;17.17;;;10.05;;
7487;SDS011;3785;52.260;4.728;2023-05-01T18:31:39;16.55;;;10.38;;
7487;SDS011;3785;52.260;4.728;2023-05-01T18:34:59;22.38;;;11.52;;
7487;SDS011;3785;52.260;4.728;2023-05-01T18:38:21;17.42;;;9.73;;
7487;SDS011;3785;52.260;4.728;2023-05-01T18:41:43;18.45;;;11.18;;
7487;SDS011;3785;52.260;4.728;2023-05-01T18:45:04;16.65;;;9.32;;
7487;SDS011;3785;52.260;4.728;2023-05-01T18:48:25;17.08;;;10.07;;
7487;SDS011;3785;52.260;4.728;2023-05-01T18:51:45;16.80;;;9.75;;
7487;SDS011;3785;52.260;4.728;2023-05-01T18:55:07;16.17;;;9.75;;
7487;SDS011;3785;52.260;4.728;2023-05-01T18:58:30;17.02;;;9.32;;
7487;SDS011;3785;52.260;4.728;2023-05-01T19:01:51;14.77;;;8.70;;
7487;SDS011;3785;52.260;4.728;2023-05-01T19:05:12;19.52;;;9.88;;
7487;SDS011;3785;52.260;4.728;2023-05-01T19:08:33;21.17;;;9.50;;
7487;SDS011;3785;52.260;4.728;2023-05-01T19:11:53;18.75;;;9.98;;
7487;SDS011;3785;52.260;4.728;2023-05-01T19:15:14;18.10;;;10.80;;
7487;SDS011;3785;52.260;4.728;2023-05-01T19:18:35;18.95;;;10.00;;
7487;SDS011;3785;52.260;4.728;2023-05-01T19:21:57;17.05;;;10.07;;
7487;SDS011;3785;52.260;4.728;2023-05-01T19:25:17;18.75;;;9.50;;
7487;SDS011;3785;52.260;4.728;2023-05-01T19:28:39;16.70;;;9.65;;
7487;SDS011;3785;52.260;4.728;2023-05-01T19:32:01;17.25;;;9.88;;
7487;SDS011;3785;52.260;4.728;2023-05-01T19:35:22;19.52;;;9.60;;
7487;SDS011;3785;52.260;4.728;2023-05-01T19:38:42;19.42;;;9.32;;
7487;SDS011;3785;52.260;4.728;2023-05-01T19:42:04;16.13;;;8.18;;
7487;SDS011;3785;52.260;4.728;2023-05-01T19:45:25;17.00;;;9.02;;
7487;SDS011;3785;52.260;4.728;2023-05-01T19:48:46;15.20;;;8.27;;
7487;SDS011;3785;52.260;4.728;2023-05-01T19:52:07;13.55;;;8.25;;
7487;SDS011;3785;52.260;4.728;2023-05-01T19:55:29;13.80;;;8.02;;
7487;SDS011;3785;52.260;4.728;2023-05-01T19:58:51;14.15;;;8.18;;
7487;SDS011;3785;52.260;4.728;2023-05-01T20:02:13;15.60;;;7.93;;
7487;SDS011;3785;52.260;4.728;2023-05-01T20:05:34;13.13;;;7.63;;
7487;SDS011;3785;52.260;4.728;2023-05-01T20:08:56;13.57;;;7.38;;
7487;SDS011;3785;52.260;4.728;2023-05-01T20:12:16;12.07;;;7.03;;
7487;SDS011;3785;52.260;4.728;2023-05-01T20:15:37;11.43;;;7.22;;
7487;SDS011;3785;52.260;4.728;2023-05-01T20:18:58;10.93;;;6.85;;
7487;SDS011;3785;52.260;4.728;2023-05-01T20:22:19;13.60;;;7.85;;
7487;SDS011;3785;52.260;4.728;2023-05-01T20:34:22;9.18;;;5.60;;
7487;SDS011;3785;52.260;4.728;2023-05-01T20:37:42;9.48;;;6.18;;
7487;SDS011;3785;52.260;4.728;2023-05-01T20:41:03;10.70;;;6.25;;
7487;SDS011;3785;52.260;4.728;2023-05-01T20:44:24;11.63;;;6.28;;
7487;SDS011;3785;52.260;4.728;2023-05-01T20:47:44;9.13;;;5.55;;
7487;SDS011;3785;52.260;4.728;2023-05-01T20:51:05;9.02;;;5.35;;
7487;SDS011;3785;52.260;4.728;2023-05-01T20:54:25;10.27;;;5.05;;
7487;SDS011;3785;52.260;4.728;2023-05-01T20:57:51;9.82;;;5.38;;
7487;SDS011;3785;52.260;4.728;2023-05-01T21:01:11;11.20;;;5.43;;
7487;SDS011;3785;52.260;4.728;2023-05-01T21:04:32;10.43;;;5.70;;
7487;SDS011;3785;52.260;4.728;2023-05-01T21:07:52;9.82;;;6.20;;
7487;SDS011;3785;52.260;4.728;2023-05-01T21:11:13;11.75;;;6.80;;
7487;SDS011;3785;52.260;4.728;2023-05-01T21:14:33;11.80;;;6.00;;
7487;SDS011;3785;52.260;4.728;2023-05-01T21:17:54;12.63;;;7.00;;
7487;SDS011;3785;52.260;4.728;2023-05-01T21:21:15;15.05;;;6.50;;
7487;SDS011;3785;52.260;4.728;2023-05-01T21:24:35;12.63;;;6.38;;
7487;SDS011;3785;52.260;4.728;2023-05-01T21:27:58;11.25;;;6.15;;